sensor_id;sensor_type;location;lat;lon;timestamp;P1;durP1;ratioP1;P2;durP2;ratioP2
9834;SDS011;4956;50.996;13.716;2023-04-24T14:03:05;2.53;;;1.10;;
9834;SDS011;4956;50.996;13.716;2023-04-24T14:06:26;12.18;;;10.50;;
9834;SDS011;4956;50.996;13.716;2023-04-24T14:09:47;1.45;;;1.05;;
9834;SDS011;4956;50.996;13.716;2023-04-24T14:13:07;19.30;;;10.63;;
9834;SDS011;4956;50.996;13.716;2023-04-24T14:16:28;7.28;;;3.30;;
9834;SDS011;4956;50.996;13.716;2023-04-24T14:19:49;1.48;;;1.10;;
9834;SDS011;4956;50.996;13.716;2023-04-24T14:23:11;6.03;;;1.42;;
9834;SDS011;4956;50.996;13.716;2023-04-24T14:26:32;2.47;;;1.42;;
9834;SDS011;4956;50.996;13.716;2023-04-24T14:29:53;4.80;;;2.88;;
9834;SDS011;4956;50.996;13.716;2023-04-24T14:33:14;4.47;;;3.55;;
9834;SDS011;4956;50.996;13.716;2023-04-24T14:36:34;1.90;;;1.50;;
9834;SDS011;4956;50.996;13.716;2023-04-24T14:39:55;1.88;;;1.10;;
9834;SDS011;4956;50.996;13.716;2023-04-24T14:43:15;1.17;;;1.00;;
9834;SDS011;4956;50.996;13.716;2023-04-24T14:46:36;3.67;;;1.20;;
9834;SDS011;4956;50.996;13.716;2023-04-24T14:49:57;1.60;;;1.05;;
9834;SDS011;4956;50.996;13.716;2023-04-24T14:53:18;3.42;;;1.50;;
9834;SDS011;4956;50.996;13.716;2023-04-24T14:56:39;1.23;;;1.10;;
9834;SDS011;4956;50.996;13.716;2023-04-24T15:00:01;1.27;;;1.00;;
9834;SDS011;4956;50.996;13.716;2023-04-24T15:03:23;2.20;;;1.20;;
9834;SDS011;4956;50.996;13.716;2023-04-24T15:06:44;1.63;;;1.52;;
9834;SDS011;4956;50.996;13.716;2023-04-24T15:10:05;2.13;;;1.20;;
9834;SDS011;4956;50.996;13.716;2023-04-24T15:13:26;2.45;;;1.20;;
9834;SDS011;4956;50.996;13.716;2023-04-24T15:16:47;2.08;;;1.50;;
9834;SDS011;4956;50.996;13.716;2023-04-24T15:20:07;1.98;;;1.25;;
9834;SDS011;4956;50.996;13.716;2023-04-24T15:23:28;2.83;;;1.38;;
9834;SDS011;4956;50.996;13.716;2023-04-24T15:26:49;1.33;;;1.05;;
9834;SDS011;4956;50.996;13.716;2023-04-24T15:30:10;1.83;;;1.08;;
9834;SDS011;4956;50.996;13.716;2023-04-24T15:33:31;1.13;;;1.00;;
9834;SDS011;4956;50.996;13.716;2023-04-24T15:36:51;3.63;;;1.73;;
9834;SDS011;4956;50.996;13.716;2023-04-24T15:40:13;3.60;;;1.50;;
9834;SDS011;4956;50.996;13.716;2023-04-24T15:43:35;2.25;;;1.15;;
9834;SDS011;4956;50.996;13.716;2023-04-24T15:46:59;1.45;;;1.20;;
9834;SDS011;4956;50.996;13.716;2023-04-24T15:50:20;2.10;;;1.55;;
9834;SDS011;4956;50.996;13.716;2023-04-24T15:53:41;2.15;;;1.23;;
9834;SDS011;4956;50.996;13.716;2023-04-24T15:57:02;1.52;;;1.23;;
9834;SDS011;4956;50.996;13.716;2023-04-24T16:00:23;2.25;;;1.55;;
9834;SDS011;4956;50.996;13.716;2023-04-24T16:03:43;1.30;;;1.20;;
9834;SDS011;4956;50.996;13.716;2023-04-24T16:07:05;4.50;;;1.60;;
9834;SDS011;4956;50.996;13.716;2023-04-24T16:10:26;3.58;;;1.52;;
9834;SDS011;4956;50.996;13.716;2023-04-24T16:13:46;2.28;;;1.92;;
9834;SDS011;4956;50.996;13.716;2023-04-24T16:17:07;7.28;;;6.47;;
9834;SDS011;4956;50.996;13.716;2023-04-24T16:20:28;14.73;;;11.70;;
9834;SDS011;4956;50.996;13.716;2023-04-24T16:23:49;23.83;;;17.10;;
9834;SDS011;4956;50.996;13.716;2023-04-24T16:27:10;9.23;;;6.10;;
9834;SDS011;4956;50.996;13.716;2023-04-24T16:30:31;37.85;;;27.40;;
9834;SDS011;4956;50.996;13.716;2023-04-24T16:33:51;40.53;;;28.13;;
9834;SDS011;4956;50.996;13.716;2023-04-24T16:37:12;2.60;;;2.08;;
9834;SDS011;4956;50.996;13.716;2023-04-24T16:40:33;6.90;;;4.63;;
9834;SDS011;4956;50.996;13.716;2023-04-24T16:43:53;11.63;;;5.38;;
9834;SDS011;4956;50.996;13.716;2023-04-24T16:47:14;7.32;;;4.95;;
9834;SDS011;4956;50.996;13.716;2023-04-24T16:50:35;2.83;;;1.60;;
9834;SDS011;4956;50.996;13.716;2023-04-24T16:53:56;3.67;;;1.67;;
9834;SDS011;4956;50.996;13.716;2023-04-24T16:57:17;5.80;;;1.73;;
9834;SDS011;4956;50.996;13.716;2023-04-24T17:00:37;4.45;;;2.35;;
9834;SDS011;4956;50.996;13.716;2023-04-24T17:03:58;4.75;;;2.05;;
9834;SDS011;4956;50.996;13.716;2023-04-24T17:07:19;5.95;;;2.90;;
9834;SDS011;4956;50.996;13.716;2023-04-24T17:10:40;4.85;;;2.30;;
9834;SDS011;4956;50.996;13.716;2023-04-24T17:14:00;2.97;;;1.70;;
9834;SDS011;4956;50.996;13.716;2023-04-24T17:17:21;1.35;;;1.25;;
9834;SDS011;4956;50.996;13.716;2023-04-24T17:20:42;3.15;;;2.20;;
9834;SDS011;4956;50.996;13.716;2023-04-24T17:24:03;4.15;;;1.40;;
9834;SDS011;4956;50.996;13.716;2023-04-24T17:27:24;2.25;;;1.20;;
9834;SDS011;4956;50.996;13.716;2023-04-24T17:30:44;1.83;;;1.30;;
9834;SDS011;4956;50.996;13.716;2023-04-24T17:34:05;3.60;;;1.00;;
9834;SDS011;4956;50.996;13.716;2023-04-24T17:37:26;2.75;;;1.70;;
9834;SDS011;4956;50.996;13.716;2023-04-24T17:40:47;2.20;;;1.10;;
9834;SDS011;4956;50.996;13.716;2023-04-24T17:44:11;2.80;;;1.40;;
9834;SDS011;4956;50.996;13.716;2023-04-24T17:47:32;1.55;;;1.20;;
9834;SDS011;4956;50.996;13.716;2023-04-24T17:50:53;1.15;;;1.00;;
9834;SDS011;4956;50.996;13.716;2023-04-24T17:54:13;2.20;;;1.35;;
9834;SDS011;4956;50.996;13.716;2023-04-24T17:57:34;2.70;;;2.28;;
9834;SDS011;4956;50.996;13.716;2023-04-24T18:00:55;2.38;;;1.50;;
9834;SDS011;4956;50.996;13.716;2023-04-24T18:04:15;2.17;;;1.52;;
9834;SDS011;4956;50.996;13.716;2023-04-24T18:07:36;1.45;;;1.27;;
9834;SDS011;4956;50.996;13.716;2023-04-24T18:10:58;1.30;;;1.20;;
9834;SDS011;4956;50.996;13.716;2023-04-24T18:14:18;1.30;;;1.00;;
9834;SDS011;4956;50.996;13.716;2023-04-24T18:17:39;1.20;;;1.00;;
9834;SDS011;4956;50.996;13.716;2023-04-24T18:21:00;2.97;;;1.00;;
9834;SDS011;4956;50.996;13.716;2023-04-24T18:24:21;1.25;;;1.00;;
9834;SDS011;4956;50.996;13.716;2023-04-24T18:27:42;2.70;;;1.80;;
9834;SDS011;4956;50.996;13.716;2023-04-24T18:31:02;1.45;;;1.05;;
9834;SDS011;4956;50.996;13.716;2023-04-24T18:34:23;1.00;;;0.90;;
9834;SDS011;4956;50.996;13.716;2023-04-24T18:37:45;1.25;;;1.15;;
9834;SDS011;4956;50.996;13.716;2023-04-24T18:41:05;0.93;;;0.70;;
9834;SDS011;4956;50.996;13.716;2023-04-24T18:44:26;0.50;;;0.50;;
9834;SDS011;4956;50.996;13.716;2023-04-24T18:47:47;2.25;;;0.60;;
9834;SDS011;4956;50.996;13.716;2023-04-24T18:51:09;1.15;;;0.80;;
9834;SDS011;4956;50.996;13.716;2023-04-24T18:54:30;1.67;;;0.57;;
9834;SDS011;4956;50.996;13.716;2023-04-24T18:57:51;2.15;;;0.60;;
9834;SDS011;4956;50.996;13.716;2023-04-24T19:01:11;0.60;;;0.60;;
9834;SDS011;4956;50.996;13.716;2023-04-24T19:04:32;1.08;;;0.70;;
9834;SDS011;4956;50.996;13.716;2023-04-24T19:07:53;0.85;;;0.73;;
9834;SDS011;4956;50.996;13.716;2023-04-24T19:11:13;1.58;;;0.73;;
9834;SDS011;4956;50.996;13.716;2023-04-24T19:14:35;1.73;;;0.90;;
9834;SDS011;4956;50.996;13.716;2023-04-24T19:17:56;0.70;;;0.70;;
9834;SDS011;4956;50.996;13.716;2023-04-24T19:21:16;2.42;;;1.00;;
9834;SDS011;4956;50.996;13.716;2023-04-24T19:24:37;0.73;;;0.73;;
9834;SDS011;4956;50.996;13.716;2023-04-24T19:27:58;0.88;;;0.88;;
9834;SDS011;4956;50.996;13.716;2023-04-24T19:31:18;1.13;;;1.10;;
9834;SDS011;4956;50.996;13.716;2023-04-24T19:34:39;1.45;;;1.35;;
9834;SDS011;4956;50.996;13.716;2023-04-24T19:38:01;1.88;;;1.63;;
9834;SDS011;4956;50.996;13.716;2023-04-24T19:41:21;1.30;;;1.23;;
9834;SDS011;4956;50.996;13.716;2023-04-24T19:44:42;1.38;;;1.27;;
9834;SDS011;4956;50.996;13.716;2023-04-24T19:48:02;1.80;;;1.70;;
9834;SDS011;4956;50.996;13.716;2023-04-24T19:51:23;1.55;;;1.45;;
9834;SDS011;4956;50.996;13.716;2023-04-24T19:54:44;3.22;;;1.65;;
9834;SDS011;4956;50.996;13.716;2023-04-24T19:58:06;2.67;;;1.65;;
9834;SDS011;4956;50.996;13.716;2023-04-24T20:01:26;1.98;;;1.70;;
9834;SDS011;4956;50.996;13.716;2023-04-24T20:04:47;2.38;;;1.80;;
9834;SDS011;4956;50.996;13.716;2023-04-24T20:08:08;1.80;;;1.70;;
9834;SDS011;4956;50.996;13.716;2023-04-24T20:11:30;2.22;;;1.85;;
9834;SDS011;4956;50.996;13.716;2023-04-24T20:14:51;1.65;;;1.55;;
9834;SDS011;4956;50.996;13.716;2023-04-24T20:18:11;2.25;;;1.90;;
9834;SDS011;4956;50.996;13.716;2023-04-24T20:21:32;2.13;;;1.80;;
9834;SDS011;4956;50.996;13.716;2023-04-24T20:24:53;1.77;;;1.65;;
9834;SDS011;4956;50.996;13.716;2023-04-24T20:28:14;2.53;;;1.90;;
9834;SDS011;4956;50.996;13.716;2023-04-24T20:31:36;2.10;;;1.75;;
9834;SDS011;4956;50.996;13.716;2023-04-24T20:34:57;2.40;;;2.20;;
9834;SDS011;4956;50.996;13.716;2023-04-24T20:38:18;2.60;;;2.00;;
9834;SDS011;4956;50.996;13.716;2023-04-24T20:41:38;2.33;;;2.13;;
9834;SDS011;4956;50.996;13.716;2023-04-24T20:45:00;3.05;;;2.03;;
9834;SDS011;4956;50.996;13.716;2023-04-24T20:48:20;2.33;;;2.10;;
9834;SDS011;4956;50.996;13.716;2023-04-24T20:51:41;3.35;;;2.58;;
9834;SDS011;4956;50.996;13.716;2023-04-24T20:55:03;2.90;;;2.28;;
9834;SDS011;4956;50.996;13.716;2023-04-24T20:58:23;4.03;;;2.95;;
9834;SDS011;4956;50.996;13.716;2023-04-24T21:01:44;3.00;;;2.70;;
9834;SDS011;4956;50.996;13.716;2023-04-24T21:05:07;5.10;;;3.00;;
9834;SDS011;4956;50.996;13.716;2023-04-24T21:08:28;3.17;;;2.60;;
9834;SDS011;4956;50.996;13.716;2023-04-24T21:11:49;3.58;;;3.10;;
9834;SDS011;4956;50.996;13.716;2023-04-24T21:15:09;3.72;;;3.10;;
9834;SDS011;4956;50.996;13.716;2023-04-24T21:18:30;4.95;;;3.00;;
9834;SDS011;4956;50.996;13.716;2023-04-24T21:21:51;4.72;;;3.10;;
9834;SDS011;4956;50.996;13.716;2023-04-24T21:25:11;4.03;;;3.25;;
9834;SDS011;4956;50.996;13.716;2023-04-24T21:28:32;3.90;;;3.33;;
9834;SDS011;4956;50.996;13.716;2023-04-24T21:31:53;4.63;;;3.67;;
9834;SDS011;4956;50.996;13.716;2023-04-24T21:35:13;5.30;;;3.42;;
9834;SDS011;4956;50.996;13.716;2023-04-24T21:38:34;4.78;;;3.80;;
9834;SDS011;4956;50.996;13.716;2023-04-24T21:41:55;5.00;;;3.78;;
9834;SDS011;4956;50.996;13.716;2023-04-24T21:45:17;8.52;;;4.13;;
9834;SDS011;4956;50.996;13.716;2023-04-24T21:48:38;6.18;;;3.85;;
9834;SDS011;4956;50.996;13.716;2023-04-24T21:51:59;5.82;;;3.80;;
9834;SDS011;4956;50.996;13.716;2023-04-24T21:55:19;5.38;;;4.07;;
9834;SDS011;4956;50.996;13.716;2023-04-24T21:58:40;6.18;;;4.18;;
9834;SDS011;4956;50.996;13.716;2023-04-24T22:02:01;5.32;;;4.30;;
9834;SDS011;4956;50.996;13.716;2023-04-24T22:05:22;5.47;;;4.10;;
9834;SDS011;4956;50.996;13.716;2023-04-24T22:08:43;6.72;;;4.20;;
9834;SDS011;4956;50.996;13.716;2023-04-24T22:12:06;6.53;;;4.50;;
9834;SDS011;4956;50.996;13.716;2023-04-24T22:15:27;6.55;;;4.38;;
9834;SDS011;4956;50.996;13.716;2023-04-24T22:18:48;6.78;;;4.32;;
9834;SDS011;4956;50.996;13.716;2023-04-24T22:22:09;6.43;;;4.32;;
9834;SDS011;4956;50.996;13.716;2023-04-24T22:25:30;7.93;;;4.97;;
9834;SDS011;4956;50.996;13.716;2023-04-24T22:28:51;7.70;;;4.45;;
9834;SDS011;4956;50.996;13.716;2023-04-24T22:32:11;6.55;;;4.50;;
9834;SDS011;4956;50.996;13.716;2023-04-24T22:35:32;5.80;;;4.60;;
9834;SDS011;4956;50.996;13.716;2023-04-24T22:38:55;6.95;;;4.60;;
9834;SDS011;4956;50.996;13.716;2023-04-24T22:42:15;7.75;;;5.50;;
9834;SDS011;4956;50.996;13.716;2023-04-24T22:45:36;6.63;;;4.70;;
9834;SDS011;4956;50.996;13.716;2023-04-24T22:48:56;7.95;;;5.05;;
9834;SDS011;4956;50.996;13.716;2023-04-24T22:52:17;7.90;;;4.97;;
9834;SDS011;4956;50.996;13.716;2023-04-24T22:55:38;6.57;;;4.85;;
9834;SDS011;4956;50.996;13.716;2023-04-24T22:58:59;5.70;;;4.65;;
9834;SDS011;4956;50.996;13.716;2023-04-24T23:02:20;6.72;;;4.88;;
9834;SDS011;4956;50.996;13.716;2023-04-24T23:05:42;10.60;;;6.13;;
9834;SDS011;4956;50.996;13.716;2023-04-24T23:09:02;8.05;;;4.93;;
9834;SDS011;4956;50.996;13.716;2023-04-24T23:12:23;5.85;;;4.35;;
9834;SDS011;4956;50.996;13.716;2023-04-24T23:15:44;7.68;;;4.90;;
9834;SDS011;4956;50.996;13.716;2023-04-24T23:19:04;8.15;;;5.30;;
9834;SDS011;4956;50.996;13.716;2023-04-24T23:22:26;6.63;;;5.40;;
9834;SDS011;4956;50.996;13.716;2023-04-24T23:25:46;8.25;;;5.22;;
9834;SDS011;4956;50.996;13.716;2023-04-24T23:29:07;8.02;;;5.13;;
9834;SDS011;4956;50.996;13.716;2023-04-24T23:32:28;6.30;;;4.82;;
9834;SDS011;4956;50.996;13.716;2023-04-24T23:35:48;8.93;;;5.90;;
9834;SDS011;4956;50.996;13.716;2023-04-24T23:39:09;11.70;;;6.07;;
9834;SDS011;4956;50.996;13.716;2023-04-24T23:42:32;13.10;;;7.38;;
9834;SDS011;4956;50.996;13.716;2023-04-24T23:45:52;12.70;;;7.72;;
9834;SDS011;4956;50.996;13.716;2023-04-24T23:49:13;10.23;;;7.32;;
9834;SDS011;4956;50.996;13.716;2023-04-24T23:52:33;10.48;;;7.13;;
9834;SDS011;4956;50.996;13.716;2023-04-24T23:55:55;9.57;;;6.93;;
9834;SDS011;4956;50.996;13.716;2023-04-24T23:59:16;10.80;;;7.57;;
